Portada
METAR-TAF:

METAR-TAF

Aeroports :

Alofi, Niue

latitud: 19-04S, longitud: 169-55W, altitud: 20 m

Observació

L'informe es va fer fa 37 minuts, a les 11:00 UTC
Vent 3 kt del Sud-Est
Temperatura 25°C
Humitat 94%
Pressió 1014 hPa
Visibilitat 10 km o més

METAR: NIUE 291100Z AUTO 14003KT 9999 NCD 25/24 Q1014

Hora: 00:37 (11:37 UTC)

Pronòstic

L'informe es va fer fa 26 minuts, a les 11:11 UTC
Pronòstic vàlid del 29 a les 12 UTC al 30 a les 12 UTC
Vent 3 kt amb direcció variable
Visibilitat 10 km o més
Cel ennuvolat a una alçada de 4300 ft
Cel ennuvolat a una alçada de 8000 ft
Probabilitat 40% :
Temporalment
l' 29 a les 12 UTC al 29 a les 18 UTC
Visibilitat: 5000 m
Núvols disperses a una alçada de 800 ft
Cel ennuvolat a una alçada de 1300 ft
pluja,

TAF: NIUE 291111Z 2912/3012 VRB03KT 9999 BKN043 BKN080 PROB40 TEMPO 2912/2918 5000 RA SCT008 BKN013

Observacions i pronòstics meteorològics de més de 4000 aeroports (METAR i TAF).

Les estacions disponibles són els punts grocs i vermells al mapa.

Posi el ratolí al punt desitjat per veure el nom de l'estació.

Feu clic per veure les observacions i els pronòstics meteorològics.

Per canviar el mapa: feu clic els botons verds amb una creu de color negre per apropar; al botó verd amb un guió per allunyar la imatge; o en les fletxes verdes per a mapes adjacents.


METAR-TAF: